sensor_id;sensor_type;location;lat;lon;timestamp;P1;durP1;ratioP1;P2;durP2;ratioP2
35126;SDS011;21300;52.006;5.798;2022-11-20T00:00:50;13.88;;;8.52;;
35126;SDS011;21300;52.006;5.798;2022-11-20T00:03:16;12.70;;;8.32;;
35126;SDS011;21300;52.006;5.798;2022-11-20T00:05:42;14.00;;;7.53;;
35126;SDS011;21300;52.006;5.798;2022-11-20T00:08:09;11.52;;;7.75;;
35126;SDS011;21300;52.006;5.798;2022-11-20T00:10:38;11.93;;;8.07;;
35126;SDS011;21300;52.006;5.798;2022-11-20T00:13:05;12.65;;;8.40;;
35126;SDS011;21300;52.006;5.798;2022-11-20T00:15:31;11.20;;;8.02;;
35126;SDS011;21300;52.006;5.798;2022-11-20T00:17:56;11.50;;;7.20;;
35126;SDS011;21300;52.006;5.798;2022-11-20T00:20:22;13.48;;;8.15;;
35126;SDS011;21300;52.006;5.798;2022-11-20T00:22:48;11.70;;;8.02;;
35126;SDS011;21300;52.006;5.798;2022-11-20T00:25:14;11.88;;;8.38;;
35126;SDS011;21300;52.006;5.798;2022-11-20T00:27:40;13.82;;;8.65;;
35126;SDS011;21300;52.006;5.798;2022-11-20T00:30:06;12.77;;;8.60;;
35126;SDS011;21300;52.006;5.798;2022-11-20T00:32:33;13.07;;;8.80;;
35126;SDS011;21300;52.006;5.798;2022-11-20T00:34:59;12.45;;;8.30;;
35126;SDS011;21300;52.006;5.798;2022-11-20T00:37:25;13.02;;;8.18;;
35126;SDS011;21300;52.006;5.798;2022-11-20T00:39:50;11.85;;;7.50;;
35126;SDS011;21300;52.006;5.798;2022-11-20T00:42:16;12.57;;;8.27;;
35126;SDS011;21300;52.006;5.798;2022-11-20T00:44:42;11.82;;;7.47;;
35126;SDS011;21300;52.006;5.798;2022-11-20T00:47:07;11.75;;;7.50;;
35126;SDS011;21300;52.006;5.798;2022-11-20T00:49:33;13.07;;;7.90;;
35126;SDS011;21300;52.006;5.798;2022-11-20T00:51:59;13.40;;;8.43;;
35126;SDS011;21300;52.006;5.798;2022-11-20T00:54:25;15.10;;;8.43;;
35126;SDS011;21300;52.006;5.798;2022-11-20T00:56:52;13.52;;;7.80;;
35126;SDS011;21300;52.006;5.798;2022-11-20T00:59:18;12.90;;;8.50;;
35126;SDS011;21300;52.006;5.798;2022-11-20T01:01:44;13.45;;;8.77;;
35126;SDS011;21300;52.006;5.798;2022-11-20T01:04:10;13.60;;;8.25;;
35126;SDS011;21300;52.006;5.798;2022-11-20T01:06:36;12.55;;;8.43;;
35126;SDS011;21300;52.006;5.798;2022-11-20T01:09:07;12.10;;;7.88;;
35126;SDS011;21300;52.006;5.798;2022-11-20T01:11:37;11.50;;;7.85;;
35126;SDS011;21300;52.006;5.798;2022-11-20T01:14:06;13.52;;;8.60;;
35126;SDS011;21300;52.006;5.798;2022-11-20T01:16:38;11.05;;;7.88;;
35126;SDS011;21300;52.006;5.798;2022-11-20T01:19:07;13.35;;;8.13;;
35126;SDS011;21300;52.006;5.798;2022-11-20T01:21:39;12.25;;;8.38;;
35126;SDS011;21300;52.006;5.798;2022-11-20T01:24:07;12.75;;;8.10;;
35126;SDS011;21300;52.006;5.798;2022-11-20T01:26:36;13.35;;;7.95;;
35126;SDS011;21300;52.006;5.798;2022-11-20T01:29:02;14.57;;;8.57;;
35126;SDS011;21300;52.006;5.798;2022-11-20T01:31:30;12.60;;;7.78;;
35126;SDS011;21300;52.006;5.798;2022-11-20T01:33:58;11.82;;;8.02;;
35126;SDS011;21300;52.006;5.798;2022-11-20T01:36:26;13.55;;;8.40;;
35126;SDS011;21300;52.006;5.798;2022-11-20T01:38:54;12.73;;;7.78;;
35126;SDS011;21300;52.006;5.798;2022-11-20T01:41:22;13.15;;;8.25;;
35126;SDS011;21300;52.006;5.798;2022-11-20T01:44:09;12.55;;;8.02;;
35126;SDS011;21300;52.006;5.798;2022-11-20T01:46:42;12.52;;;8.07;;
35126;SDS011;21300;52.006;5.798;2022-11-20T01:49:29;13.32;;;8.55;;
35126;SDS011;21300;52.006;5.798;2022-11-20T01:52:23;12.70;;;7.57;;
35126;SDS011;21300;52.006;5.798;2022-11-20T01:54:54;15.77;;;9.25;;
35126;SDS011;21300;52.006;5.798;2022-11-20T01:57:29;14.10;;;8.55;;
35126;SDS011;21300;52.006;5.798;2022-11-20T02:00:04;12.80;;;8.15;;
35126;SDS011;21300;52.006;5.798;2022-11-20T02:02:34;12.15;;;8.25;;
35126;SDS011;21300;52.006;5.798;2022-11-20T02:05:03;12.55;;;8.27;;
35126;SDS011;21300;52.006;5.798;2022-11-20T02:07:36;15.15;;;8.48;;
35126;SDS011;21300;52.006;5.798;2022-11-20T02:10:02;13.40;;;8.40;;
35126;SDS011;21300;52.006;5.798;2022-11-20T02:12:28;15.05;;;8.70;;
35126;SDS011;21300;52.006;5.798;2022-11-20T02:15:12;12.77;;;8.02;;
35126;SDS011;21300;52.006;5.798;2022-11-20T02:17:38;11.23;;;7.65;;
35126;SDS011;21300;52.006;5.798;2022-11-20T02:20:04;14.00;;;8.98;;
35126;SDS011;21300;52.006;5.798;2022-11-20T02:22:32;13.77;;;8.82;;
35126;SDS011;21300;52.006;5.798;2022-11-20T02:25:06;14.30;;;8.38;;
35126;SDS011;21300;52.006;5.798;2022-11-20T02:27:33;13.52;;;8.50;;
35126;SDS011;21300;52.006;5.798;2022-11-20T02:30:03;12.93;;;8.00;;
35126;SDS011;21300;52.006;5.798;2022-11-20T02:32:33;14.50;;;8.45;;
35126;SDS011;21300;52.006;5.798;2022-11-20T02:35:07;15.43;;;9.05;;
35126;SDS011;21300;52.006;5.798;2022-11-20T02:37:54;15.95;;;8.80;;
35126;SDS011;21300;52.006;5.798;2022-11-20T02:40:21;15.02;;;9.15;;
35126;SDS011;21300;52.006;5.798;2022-11-20T02:42:46;12.10;;;7.70;;
35126;SDS011;21300;52.006;5.798;2022-11-20T02:45:12;16.33;;;9.13;;
35126;SDS011;21300;52.006;5.798;2022-11-20T02:47:38;14.15;;;8.98;;
35126;SDS011;21300;52.006;5.798;2022-11-20T02:50:04;16.88;;;9.10;;
35126;SDS011;21300;52.006;5.798;2022-11-20T02:52:30;14.68;;;8.50;;
35126;SDS011;21300;52.006;5.798;2022-11-20T02:54:56;13.75;;;8.38;;
35126;SDS011;21300;52.006;5.798;2022-11-20T02:57:21;13.68;;;8.93;;
35126;SDS011;21300;52.006;5.798;2022-11-20T02:59:47;15.32;;;8.93;;
35126;SDS011;21300;52.006;5.798;2022-11-20T03:02:13;14.25;;;8.25;;
35126;SDS011;21300;52.006;5.798;2022-11-20T03:04:38;12.98;;;8.15;;
35126;SDS011;21300;52.006;5.798;2022-11-20T03:07:04;14.05;;;8.73;;
35126;SDS011;21300;52.006;5.798;2022-11-20T03:09:30;12.65;;;8.25;;
35126;SDS011;21300;52.006;5.798;2022-11-20T03:11:55;12.98;;;8.77;;
35126;SDS011;21300;52.006;5.798;2022-11-20T03:14:21;15.70;;;8.38;;
35126;SDS011;21300;52.006;5.798;2022-11-20T03:16:47;11.85;;;8.20;;
35126;SDS011;21300;52.006;5.798;2022-11-20T03:19:12;12.18;;;8.27;;
35126;SDS011;21300;52.006;5.798;2022-11-20T03:21:38;14.30;;;8.90;;
35126;SDS011;21300;52.006;5.798;2022-11-20T03:24:04;13.25;;;8.23;;
35126;SDS011;21300;52.006;5.798;2022-11-20T03:26:30;12.40;;;7.57;;
35126;SDS011;21300;52.006;5.798;2022-11-20T03:28:56;13.50;;;8.25;;
35126;SDS011;21300;52.006;5.798;2022-11-20T03:31:25;12.88;;;7.95;;
35126;SDS011;21300;52.006;5.798;2022-11-20T03:33:52;14.82;;;8.75;;
35126;SDS011;21300;52.006;5.798;2022-11-20T03:36:19;13.25;;;8.57;;
35126;SDS011;21300;52.006;5.798;2022-11-20T03:38:45;12.32;;;7.97;;
35126;SDS011;21300;52.006;5.798;2022-11-20T03:41:14;12.50;;;8.27;;
35126;SDS011;21300;52.006;5.798;2022-11-20T03:43:53;14.27;;;8.15;;
35126;SDS011;21300;52.006;5.798;2022-11-20T03:46:23;14.02;;;8.48;;
35126;SDS011;21300;52.006;5.798;2022-11-20T03:48:50;13.23;;;7.65;;
35126;SDS011;21300;52.006;5.798;2022-11-20T03:51:17;17.35;;;9.05;;
35126;SDS011;21300;52.006;5.798;2022-11-20T03:53:48;13.40;;;8.63;;
35126;SDS011;21300;52.006;5.798;2022-11-20T03:56:15;13.65;;;8.30;;
35126;SDS011;21300;52.006;5.798;2022-11-20T03:58:43;12.82;;;8.35;;
35126;SDS011;21300;52.006;5.798;2022-11-20T04:01:09;12.68;;;8.25;;
35126;SDS011;21300;52.006;5.798;2022-11-20T04:03:56;14.30;;;8.30;;
35126;SDS011;21300;52.006;5.798;2022-11-20T04:06:23;13.65;;;8.50;;
35126;SDS011;21300;52.006;5.798;2022-11-20T04:08:56;13.98;;;8.70;;
35126;SDS011;21300;52.006;5.798;2022-11-20T04:11:24;14.90;;;8.50;;
35126;SDS011;21300;52.006;5.798;2022-11-20T04:13:52;13.73;;;7.88;;
35126;SDS011;21300;52.006;5.798;2022-11-20T04:16:20;14.10;;;7.20;;
35126;SDS011;21300;52.006;5.798;2022-11-20T04:18:46;13.25;;;8.25;;
35126;SDS011;21300;52.006;5.798;2022-11-20T04:21:12;12.52;;;7.97;;
35126;SDS011;21300;52.006;5.798;2022-11-20T04:23:38;14.05;;;8.60;;
35126;SDS011;21300;52.006;5.798;2022-11-20T04:26:06;13.63;;;8.35;;
35126;SDS011;21300;52.006;5.798;2022-11-20T04:28:36;14.32;;;8.25;;
35126;SDS011;21300;52.006;5.798;2022-11-20T04:31:06;12.48;;;8.38;;
35126;SDS011;21300;52.006;5.798;2022-11-20T04:33:43;13.63;;;8.57;;
35126;SDS011;21300;52.006;5.798;2022-11-20T04:38:38;13.23;;;8.80;;
35126;SDS011;21300;52.006;5.798;2022-11-20T04:41:05;14.57;;;7.88;;
35126;SDS011;21300;52.006;5.798;2022-11-20T04:43:34;14.13;;;8.80;;
35126;SDS011;21300;52.006;5.798;2022-11-20T04:46:00;12.77;;;8.27;;
35126;SDS011;21300;52.006;5.798;2022-11-20T04:48:26;13.38;;;8.02;;
35126;SDS011;21300;52.006;5.798;2022-11-20T04:50:52;11.73;;;7.68;;
35126;SDS011;21300;52.006;5.798;2022-11-20T04:53:18;13.18;;;8.38;;
35126;SDS011;21300;52.006;5.798;2022-11-20T04:55:45;13.70;;;7.95;;
35126;SDS011;21300;52.006;5.798;2022-11-20T04:58:11;13.57;;;8.48;;
35126;SDS011;21300;52.006;5.798;2022-11-20T05:00:37;14.35;;;8.27;;
35126;SDS011;21300;52.006;5.798;2022-11-20T05:03:03;15.13;;;8.45;;
35126;SDS011;21300;52.006;5.798;2022-11-20T05:05:29;13.43;;;7.75;;
35126;SDS011;21300;52.006;5.798;2022-11-20T05:07:58;12.55;;;7.60;;
35126;SDS011;21300;52.006;5.798;2022-11-20T05:10:24;13.75;;;7.63;;
35126;SDS011;21300;52.006;5.798;2022-11-20T05:12:50;12.65;;;7.93;;
35126;SDS011;21300;52.006;5.798;2022-11-20T05:15:16;11.25;;;7.35;;
35126;SDS011;21300;52.006;5.798;2022-11-20T05:17:46;12.68;;;7.95;;
35126;SDS011;21300;52.006;5.798;2022-11-20T05:20:16;12.73;;;8.05;;
35126;SDS011;21300;52.006;5.798;2022-11-20T05:22:42;14.15;;;8.10;;
35126;SDS011;21300;52.006;5.798;2022-11-20T05:25:08;14.07;;;8.10;;
35126;SDS011;21300;52.006;5.798;2022-11-20T05:27:34;13.68;;;8.25;;
35126;SDS011;21300;52.006;5.798;2022-11-20T05:29:59;12.65;;;7.63;;
35126;SDS011;21300;52.006;5.798;2022-11-20T05:32:25;11.93;;;7.50;;
35126;SDS011;21300;52.006;5.798;2022-11-20T05:34:51;12.48;;;8.18;;
35126;SDS011;21300;52.006;5.798;2022-11-20T05:37:17;13.63;;;7.80;;
35126;SDS011;21300;52.006;5.798;2022-11-20T05:39:43;15.02;;;8.43;;
35126;SDS011;21300;52.006;5.798;2022-11-20T05:42:08;13.75;;;8.13;;
35126;SDS011;21300;52.006;5.798;2022-11-20T05:44:52;15.35;;;8.73;;
35126;SDS011;21300;52.006;5.798;2022-11-20T05:47:18;13.77;;;7.82;;
35126;SDS011;21300;52.006;5.798;2022-11-20T05:49:44;16.15;;;8.68;;
35126;SDS011;21300;52.006;5.798;2022-11-20T05:52:09;14.15;;;8.30;;
35126;SDS011;21300;52.006;5.798;2022-11-20T05:54:35;12.45;;;7.70;;
35126;SDS011;21300;52.006;5.798;2022-11-20T05:57:00;12.40;;;7.93;;
35126;SDS011;21300;52.006;5.798;2022-11-20T05:59:26;11.48;;;7.75;;
35126;SDS011;21300;52.006;5.798;2022-11-20T06:01:51;13.43;;;7.85;;
35126;SDS011;21300;52.006;5.798;2022-11-20T06:04:17;15.65;;;8.43;;
35126;SDS011;21300;52.006;5.798;2022-11-20T06:06:42;13.63;;;8.15;;
35126;SDS011;21300;52.006;5.798;2022-11-20T06:09:08;12.15;;;8.05;;
35126;SDS011;21300;52.006;5.798;2022-11-20T06:11:34;13.13;;;8.57;;
35126;SDS011;21300;52.006;5.798;2022-11-20T06:13:59;13.52;;;8.00;;
35126;SDS011;21300;52.006;5.798;2022-11-20T06:16:25;14.27;;;7.72;;
35126;SDS011;21300;52.006;5.798;2022-11-20T06:18:51;12.68;;;8.50;;
35126;SDS011;21300;52.006;5.798;2022-11-20T06:21:17;14.43;;;8.50;;
35126;SDS011;21300;52.006;5.798;2022-11-20T06:23:44;14.57;;;8.25;;
35126;SDS011;21300;52.006;5.798;2022-11-20T06:26:15;12.80;;;8.18;;
35126;SDS011;21300;52.006;5.798;2022-11-20T06:28:42;12.20;;;8.13;;
35126;SDS011;21300;52.006;5.798;2022-11-20T06:31:10;13.60;;;8.20;;
35126;SDS011;21300;52.006;5.798;2022-11-20T06:33:38;15.10;;;8.80;;
35126;SDS011;21300;52.006;5.798;2022-11-20T06:36:04;14.90;;;8.15;;
35126;SDS011;21300;52.006;5.798;2022-11-20T06:38:30;13.15;;;7.40;;
35126;SDS011;21300;52.006;5.798;2022-11-20T06:40:56;12.50;;;8.38;;
35126;SDS011;21300;52.006;5.798;2022-11-20T06:43:22;13.55;;;7.68;;
35126;SDS011;21300;52.006;5.798;2022-11-20T06:45:54;11.30;;;7.38;;
35126;SDS011;21300;52.006;5.798;2022-11-20T06:48:21;13.52;;;8.52;;
35126;SDS011;21300;52.006;5.798;2022-11-20T06:50:48;15.10;;;8.57;;
35126;SDS011;21300;52.006;5.798;2022-11-20T06:53:14;12.20;;;8.40;;
35126;SDS011;21300;52.006;5.798;2022-11-20T06:55:45;15.00;;;8.45;;
35126;SDS011;21300;52.006;5.798;2022-11-20T06:58:11;11.75;;;7.75;;
35126;SDS011;21300;52.006;5.798;2022-11-20T07:00:38;12.63;;;7.95;;
35126;SDS011;21300;52.006;5.798;2022-11-20T07:03:04;13.82;;;8.82;;
35126;SDS011;21300;52.006;5.798;2022-11-20T07:05:31;12.82;;;8.10;;
35126;SDS011;21300;52.006;5.798;2022-11-20T07:07:57;11.32;;;7.88;;
35126;SDS011;21300;52.006;5.798;2022-11-20T07:10:23;13.95;;;8.40;;
35126;SDS011;21300;52.006;5.798;2022-11-20T07:12:49;13.38;;;8.25;;
35126;SDS011;21300;52.006;5.798;2022-11-20T07:15:16;12.75;;;8.18;;
35126;SDS011;21300;52.006;5.798;2022-11-20T07:17:42;12.27;;;7.75;;
35126;SDS011;21300;52.006;5.798;2022-11-20T07:20:08;12.93;;;7.97;;
35126;SDS011;21300;52.006;5.798;2022-11-20T07:22:34;13.80;;;8.05;;
35126;SDS011;21300;52.006;5.798;2022-11-20T07:24:59;17.85;;;8.20;;
35126;SDS011;21300;52.006;5.798;2022-11-20T07:27:25;14.57;;;7.82;;
35126;SDS011;21300;52.006;5.798;2022-11-20T07:29:51;14.73;;;8.25;;
35126;SDS011;21300;52.006;5.798;2022-11-20T07:32:16;12.88;;;8.18;;
35126;SDS011;21300;52.006;5.798;2022-11-20T07:34:42;14.57;;;8.30;;
35126;SDS011;21300;52.006;5.798;2022-11-20T07:37:07;14.15;;;8.25;;
35126;SDS011;21300;52.006;5.798;2022-11-20T07:39:33;12.35;;;7.90;;
35126;SDS011;21300;52.006;5.798;2022-11-20T07:41:59;15.35;;;8.75;;
35126;SDS011;21300;52.006;5.798;2022-11-20T07:44:24;13.68;;;8.52;;
35126;SDS011;21300;52.006;5.798;2022-11-20T07:46:50;13.13;;;8.32;;
35126;SDS011;21300;52.006;5.798;2022-11-20T07:49:16;15.18;;;8.02;;
35126;SDS011;21300;52.006;5.798;2022-11-20T07:51:42;12.57;;;7.70;;
35126;SDS011;21300;52.006;5.798;2022-11-20T07:54:07;13.18;;;8.02;;
35126;SDS011;21300;52.006;5.798;2022-11-20T07:56:33;14.05;;;8.02;;
35126;SDS011;21300;52.006;5.798;2022-11-20T07:58:59;15.43;;;8.40;;
35126;SDS011;21300;52.006;5.798;2022-11-20T08:01:24;14.85;;;8.20;;
35126;SDS011;21300;52.006;5.798;2022-11-20T08:03:50;12.30;;;8.18;;
35126;SDS011;21300;52.006;5.798;2022-11-20T08:06:16;16.02;;;8.60;;
35126;SDS011;21300;52.006;5.798;2022-11-20T08:08:42;14.85;;;8.27;;
35126;SDS011;21300;52.006;5.798;2022-11-20T08:11:08;12.63;;;7.88;;
35126;SDS011;21300;52.006;5.798;2022-11-20T08:13:52;12.50;;;8.27;;
35126;SDS011;21300;52.006;5.798;2022-11-20T08:16:36;15.32;;;9.13;;
35126;SDS011;21300;52.006;5.798;2022-11-20T08:19:01;15.23;;;8.75;;
35126;SDS011;21300;52.006;5.798;2022-11-20T08:21:27;15.15;;;9.38;;
35126;SDS011;21300;52.006;5.798;2022-11-20T08:23:53;15.27;;;8.80;;
35126;SDS011;21300;52.006;5.798;2022-11-20T08:26:18;14.30;;;8.85;;
35126;SDS011;21300;52.006;5.798;2022-11-20T08:28:45;13.70;;;8.57;;
35126;SDS011;21300;52.006;5.798;2022-11-20T08:31:11;13.85;;;9.05;;
35126;SDS011;21300;52.006;5.798;2022-11-20T08:33:38;13.00;;;8.57;;
35126;SDS011;21300;52.006;5.798;2022-11-20T08:36:04;14.52;;;8.73;;
35126;SDS011;21300;52.006;5.798;2022-11-20T08:38:31;13.90;;;8.60;;
35126;SDS011;21300;52.006;5.798;2022-11-20T08:40:57;14.95;;;8.98;;
35126;SDS011;21300;52.006;5.798;2022-11-20T08:43:42;14.55;;;8.88;;
35126;SDS011;21300;52.006;5.798;2022-11-20T08:46:08;12.68;;;8.07;;
35126;SDS011;21300;52.006;5.798;2022-11-20T08:48:33;14.15;;;8.07;;
35126;SDS011;21300;52.006;5.798;2022-11-20T08:50:59;16.58;;;9.45;;
35126;SDS011;21300;52.006;5.798;2022-11-20T08:53:25;14.57;;;8.88;;
35126;SDS011;21300;52.006;5.798;2022-11-20T08:55:51;19.52;;;9.98;;
35126;SDS011;21300;52.006;5.798;2022-11-20T08:58:17;17.98;;;10.05;;
35126;SDS011;21300;52.006;5.798;2022-11-20T09:00:42;20.33;;;11.77;;
35126;SDS011;21300;52.006;5.798;2022-11-20T09:03:08;20.65;;;12.10;;
35126;SDS011;21300;52.006;5.798;2022-11-20T09:05:33;18.17;;;11.27;;
35126;SDS011;21300;52.006;5.798;2022-11-20T09:07:59;24.08;;;13.88;;
35126;SDS011;21300;52.006;5.798;2022-11-20T09:10:25;24.50;;;14.00;;
35126;SDS011;21300;52.006;5.798;2022-11-20T09:12:51;20.05;;;12.80;;
35126;SDS011;21300;52.006;5.798;2022-11-20T09:15:19;27.00;;;13.90;;
35126;SDS011;21300;52.006;5.798;2022-11-20T09:17:52;21.52;;;12.15;;
35126;SDS011;21300;52.006;5.798;2022-11-20T09:20:25;20.88;;;11.93;;
35126;SDS011;21300;52.006;5.798;2022-11-20T09:22:51;24.52;;;12.57;;
35126;SDS011;21300;52.006;5.798;2022-11-20T09:25:17;17.33;;;10.52;;
35126;SDS011;21300;52.006;5.798;2022-11-20T09:27:43;23.55;;;13.57;;
35126;SDS011;21300;52.006;5.798;2022-11-20T09:30:11;22.95;;;12.88;;
35126;SDS011;21300;52.006;5.798;2022-11-20T09:32:41;23.63;;;13.63;;
35126;SDS011;21300;52.006;5.798;2022-11-20T09:35:07;23.85;;;14.35;;
35126;SDS011;21300;52.006;5.798;2022-11-20T09:37:36;27.42;;;14.63;;
35126;SDS011;21300;52.006;5.798;2022-11-20T09:40:02;27.48;;;14.63;;
35126;SDS011;21300;52.006;5.798;2022-11-20T09:45:02;27.27;;;15.73;;
35126;SDS011;21300;52.006;5.798;2022-11-20T09:53:12;28.08;;;15.32;;
35126;SDS011;21300;52.006;5.798;2022-11-20T09:55:49;26.23;;;15.18;;
35126;SDS011;21300;52.006;5.798;2022-11-20T09:58:28;27.50;;;15.13;;
35126;SDS011;21300;52.006;5.798;2022-11-20T10:01:11;29.45;;;15.88;;
35126;SDS011;21300;52.006;5.798;2022-11-20T10:06:16;28.55;;;17.15;;
35126;SDS011;21300;52.006;5.798;2022-11-20T10:09:06;33.75;;;17.63;;
35126;SDS011;21300;52.006;5.798;2022-11-20T10:11:48;30.58;;;16.38;;
35126;SDS011;21300;52.006;5.798;2022-11-20T10:14:26;30.15;;;16.98;;
35126;SDS011;21300;52.006;5.798;2022-11-20T10:17:00;31.67;;;18.23;;
35126;SDS011;21300;52.006;5.798;2022-11-20T10:30:36;34.55;;;18.63;;
35126;SDS011;21300;52.006;5.798;2022-11-20T10:33:12;36.97;;;20.27;;
35126;SDS011;21300;52.006;5.798;2022-11-20T10:38:21;38.17;;;20.38;;
35126;SDS011;21300;52.006;5.798;2022-11-20T10:40:54;35.05;;;20.30;;
35126;SDS011;21300;52.006;5.798;2022-11-20T10:43:44;35.08;;;19.83;;
35126;SDS011;21300;52.006;5.798;2022-11-20T10:46:15;35.80;;;18.95;;
35126;SDS011;21300;52.006;5.798;2022-11-20T10:48:43;39.65;;;21.23;;
35126;SDS011;21300;52.006;5.798;2022-11-20T10:54:51;35.42;;;19.75;;
35126;SDS011;21300;52.006;5.798;2022-11-20T11:00:11;36.67;;;20.38;;
35126;SDS011;21300;52.006;5.798;2022-11-20T11:02:46;39.35;;;21.98;;
35126;SDS011;21300;52.006;5.798;2022-11-20T11:05:31;38.93;;;21.03;;
35126;SDS011;21300;52.006;5.798;2022-11-20T11:08:05;39.85;;;21.05;;
35126;SDS011;21300;52.006;5.798;2022-11-20T11:10:56;39.40;;;21.83;;
35126;SDS011;21300;52.006;5.798;2022-11-20T11:13:29;39.78;;;21.27;;
35126;SDS011;21300;52.006;5.798;2022-11-20T11:15:56;39.00;;;21.65;;
35126;SDS011;21300;52.006;5.798;2022-11-20T11:18:26;40.13;;;22.27;;
35126;SDS011;21300;52.006;5.798;2022-11-20T11:20:55;43.97;;;22.73;;
35126;SDS011;21300;52.006;5.798;2022-11-20T11:23:40;40.80;;;22.67;;
35126;SDS011;21300;52.006;5.798;2022-11-20T11:26:17;41.20;;;22.08;;
35126;SDS011;21300;52.006;5.798;2022-11-20T11:28:57;41.83;;;22.52;;
35126;SDS011;21300;52.006;5.798;2022-11-20T11:31:26;45.60;;;24.20;;
35126;SDS011;21300;52.006;5.798;2022-11-20T11:36:39;40.65;;;21.73;;
35126;SDS011;21300;52.006;5.798;2022-11-20T11:39:06;47.13;;;23.48;;
35126;SDS011;21300;52.006;5.798;2022-11-20T11:41:38;45.15;;;24.88;;
35126;SDS011;21300;52.006;5.798;2022-11-20T11:44:21;42.38;;;23.33;;
35126;SDS011;21300;52.006;5.798;2022-11-20T11:47:32;44.08;;;22.48;;
35126;SDS011;21300;52.006;5.798;2022-11-20T12:00:25;41.25;;;22.70;;
35126;SDS011;21300;52.006;5.798;2022-11-20T12:05:40;39.80;;;23.60;;
35126;SDS011;21300;52.006;5.798;2022-11-20T12:08:12;39.75;;;23.00;;
35126;SDS011;21300;52.006;5.798;2022-11-20T12:10:58;39.45;;;22.00;;
35126;SDS011;21300;52.006;5.798;2022-11-20T12:15:58;41.30;;;22.48;;
35126;SDS011;21300;52.006;5.798;2022-11-20T12:18:24;41.53;;;23.00;;
35126;SDS011;21300;52.006;5.798;2022-11-20T12:29:01;34.75;;;19.92;;
35126;SDS011;21300;52.006;5.798;2022-11-20T12:34:43;37.38;;;21.33;;
35126;SDS011;21300;52.006;5.798;2022-11-20T12:37:35;34.20;;;19.02;;
35126;SDS011;21300;52.006;5.798;2022-11-20T12:43:22;33.83;;;20.40;;
35126;SDS011;21300;52.006;5.798;2022-11-20T12:46:14;32.65;;;18.55;;
35126;SDS011;21300;52.006;5.798;2022-11-20T13:00:20;35.83;;;20.80;;
35126;SDS011;21300;52.006;5.798;2022-11-20T13:08:18;40.03;;;22.30;;
35126;SDS011;21300;52.006;5.798;2022-11-20T13:11:01;44.90;;;23.30;;
35126;SDS011;21300;52.006;5.798;2022-11-20T13:16:11;44.05;;;25.80;;
35126;SDS011;21300;52.006;5.798;2022-11-20T13:18:44;46.63;;;26.48;;
35126;SDS011;21300;52.006;5.798;2022-11-20T13:21:14;47.30;;;27.60;;
35126;SDS011;21300;52.006;5.798;2022-11-20T13:26:19;41.67;;;24.05;;
35126;SDS011;21300;52.006;5.798;2022-11-20T13:28:47;47.33;;;26.30;;
35126;SDS011;21300;52.006;5.798;2022-11-20T13:31:31;41.05;;;24.33;;
35126;SDS011;21300;52.006;5.798;2022-11-20T13:33:58;46.28;;;26.02;;
35126;SDS011;21300;52.006;5.798;2022-11-20T13:36:27;47.35;;;27.20;;
35126;SDS011;21300;52.006;5.798;2022-11-20T13:38:54;52.00;;;27.50;;
35126;SDS011;21300;52.006;5.798;2022-11-20T13:41:25;44.97;;;23.80;;
35126;SDS011;21300;52.006;5.798;2022-11-20T13:46:41;45.00;;;24.98;;
35126;SDS011;21300;52.006;5.798;2022-11-20T13:55:02;41.35;;;23.25;;
35126;SDS011;21300;52.006;5.798;2022-11-20T13:58:03;40.93;;;24.20;;
35126;SDS011;21300;52.006;5.798;2022-11-20T14:03:50;44.03;;;22.33;;
35126;SDS011;21300;52.006;5.798;2022-11-20T14:06:28;45.58;;;24.15;;
35126;SDS011;21300;52.006;5.798;2022-11-20T14:08:56;46.15;;;26.23;;
35126;SDS011;21300;52.006;5.798;2022-11-20T14:11:23;47.55;;;25.50;;
35126;SDS011;21300;52.006;5.798;2022-11-20T14:13:51;49.10;;;26.50;;
35126;SDS011;21300;52.006;5.798;2022-11-20T14:16:23;50.60;;;27.73;;
35126;SDS011;21300;52.006;5.798;2022-11-20T14:18:51;47.72;;;25.15;;
35126;SDS011;21300;52.006;5.798;2022-11-20T14:21:25;51.10;;;27.75;;
35126;SDS011;21300;52.006;5.798;2022-11-20T14:24:13;51.58;;;26.58;;
35126;SDS011;21300;52.006;5.798;2022-11-20T14:26:42;51.50;;;27.85;;
35126;SDS011;21300;52.006;5.798;2022-11-20T14:29:16;53.95;;;28.30;;
35126;SDS011;21300;52.006;5.798;2022-11-20T14:31:46;54.50;;;27.70;;
35126;SDS011;21300;52.006;5.798;2022-11-20T14:34:20;44.15;;;24.48;;
35126;SDS011;21300;52.006;5.798;2022-11-20T14:36:50;43.25;;;23.23;;
35126;SDS011;21300;52.006;5.798;2022-11-20T14:39:20;53.58;;;28.52;;
35126;SDS011;21300;52.006;5.798;2022-11-20T14:41:50;51.90;;;27.88;;
35126;SDS011;21300;52.006;5.798;2022-11-20T14:44:17;52.03;;;28.08;;
35126;SDS011;21300;52.006;5.798;2022-11-20T14:46:42;57.92;;;30.20;;
35126;SDS011;21300;52.006;5.798;2022-11-20T14:49:08;60.70;;;31.48;;
35126;SDS011;21300;52.006;5.798;2022-11-20T14:51:36;59.38;;;29.17;;
35126;SDS011;21300;52.006;5.798;2022-11-20T14:56:58;57.75;;;31.10;;
35126;SDS011;21300;52.006;5.798;2022-11-20T14:59:27;64.43;;;31.13;;
35126;SDS011;21300;52.006;5.798;2022-11-20T15:01:58;60.35;;;32.53;;
35126;SDS011;21300;52.006;5.798;2022-11-20T15:04:26;67.70;;;33.67;;
35126;SDS011;21300;52.006;5.798;2022-11-20T15:06:53;57.15;;;28.15;;
35126;SDS011;21300;52.006;5.798;2022-11-20T15:09:20;65.65;;;32.90;;
35126;SDS011;21300;52.006;5.798;2022-11-20T15:14:20;52.17;;;28.75;;
35126;SDS011;21300;52.006;5.798;2022-11-20T15:16:46;66.63;;;31.48;;
35126;SDS011;21300;52.006;5.798;2022-11-20T15:19:29;56.80;;;29.73;;
35126;SDS011;21300;52.006;5.798;2022-11-20T15:21:55;56.40;;;27.27;;
35126;SDS011;21300;52.006;5.798;2022-11-20T15:24:21;65.85;;;31.77;;
35126;SDS011;21300;52.006;5.798;2022-11-20T15:26:46;58.15;;;30.98;;
35126;SDS011;21300;52.006;5.798;2022-11-20T15:29:13;54.88;;;28.67;;
35126;SDS011;21300;52.006;5.798;2022-11-20T15:31:43;60.38;;;27.92;;
35126;SDS011;21300;52.006;5.798;2022-11-20T15:34:18;52.33;;;27.70;;
35126;SDS011;21300;52.006;5.798;2022-11-20T15:36:44;49.53;;;25.50;;
35126;SDS011;21300;52.006;5.798;2022-11-20T15:39:10;52.88;;;26.75;;
35126;SDS011;21300;52.006;5.798;2022-11-20T15:41:36;56.28;;;27.67;;
35126;SDS011;21300;52.006;5.798;2022-11-20T15:44:03;58.40;;;28.00;;
35126;SDS011;21300;52.006;5.798;2022-11-20T15:46:33;51.70;;;28.35;;
35126;SDS011;21300;52.006;5.798;2022-11-20T15:49:08;59.05;;;31.33;;
35126;SDS011;21300;52.006;5.798;2022-11-20T15:51:37;45.65;;;24.77;;
35126;SDS011;21300;52.006;5.798;2022-11-20T15:54:11;47.83;;;25.20;;
35126;SDS011;21300;52.006;5.798;2022-11-20T15:56:38;44.63;;;25.63;;
35126;SDS011;21300;52.006;5.798;2022-11-20T15:59:04;57.20;;;29.38;;
35126;SDS011;21300;52.006;5.798;2022-11-20T16:01:30;51.60;;;28.42;;
35126;SDS011;21300;52.006;5.798;2022-11-20T16:03:55;56.05;;;27.75;;
35126;SDS011;21300;52.006;5.798;2022-11-20T16:06:21;46.97;;;26.23;;
35126;SDS011;21300;52.006;5.798;2022-11-20T16:08:46;53.10;;;27.85;;
35126;SDS011;21300;52.006;5.798;2022-11-20T16:11:13;52.13;;;27.30;;
35126;SDS011;21300;52.006;5.798;2022-11-20T16:13:40;44.95;;;22.08;;
35126;SDS011;21300;52.006;5.798;2022-11-20T16:16:26;52.97;;;26.67;;
35126;SDS011;21300;52.006;5.798;2022-11-20T16:18:57;52.35;;;26.20;;
35126;SDS011;21300;52.006;5.798;2022-11-20T16:21:22;54.47;;;28.17;;
35126;SDS011;21300;52.006;5.798;2022-11-20T16:26:23;55.65;;;30.60;;
35126;SDS011;21300;52.006;5.798;2022-11-20T16:28:49;55.22;;;29.27;;